Time;durP1;ratioP1;P1;durP2;ratioP2;P2;SDS_P1;SDS_P2;PMS_P1;PMS_P2;Temp;Humidity;BMP_temperature;BMP_pressure;BME280_temperature;BME280_humidity;BME280_pressure;Samples;Min_cycle;Max_cycle;Signal;HPM_P1;HPM_P2
2022/03/16 00:01:51;;;;;;;30.80;15.87;;;;;;;;;;5018455;28;20194;-67
2022/03/16 00:04:16;;;;;;;27.67;14.90;;;;;;;;;;5022130;28;20193;-67
2022/03/16 00:06:41;;;;;;;28.63;15.17;;;;;;;;;;5029795;28;20206;-68
2022/03/16 00:09:06;;;;;;;33.40;14.87;;;;;;;;;;5025593;28;20550;-68
2022/03/16 00:11:32;;;;;;;39.83;16.93;;;;;;;;;;5027919;28;20182;-68
2022/03/16 00:13:58;;;;;;;40.90;19.70;;;;;;;;;;5025166;28;20557;-66
2022/03/16 00:16:24;;;;;;;48.17;22.63;;;;;;;;;;5028528;28;20186;-67
2022/03/16 00:18:49;;;;;;;42.47;21.67;;;;;;;;;;5028874;28;20535;-67
2022/03/16 00:21:14;;;;;;;49.90;22.43;;;;;;;;;;5022848;28;20201;-67
2022/03/16 00:23:40;;;;;;;46.53;23.20;;;;;;;;;;5027024;28;20201;-67
2022/03/16 00:26:05;;;;;;;42.67;20.13;;;;;;;;;;5029467;28;20233;-67
2022/03/16 00:28:30;;;;;;;41.60;19.53;;;;;;;;;;5019592;28;20586;-67
2022/03/16 00:30:56;;;;;;;39.03;18.53;;;;;;;;;;5025376;28;20293;-68
2022/03/16 00:33:21;;;;;;;42.60;19.30;;;;;;;;;;5027484;28;20186;-67
2022/03/16 00:35:46;;;;;;;39.53;19.60;;;;;;;;;;5025021;28;20183;-67
2022/03/16 00:38:14;;;;;;;39.67;18.30;;;;;;;;;;5025188;28;20197;-67
2022/03/16 00:40:39;;;;;;;37.53;17.60;;;;;;;;;;5022248;28;20550;-67
2022/03/16 00:43:05;;;;;;;37.50;17.53;;;;;;;;;;5026510;28;20198;-67
2022/03/16 00:45:30;;;;;;;33.57;16.17;;;;;;;;;;5026402;28;20186;-66
2022/03/16 00:47:55;;;;;;;26.13;14.13;;;;;;;;;;5019156;28;20205;-66
2022/03/16 00:50:21;;;;;;;28.93;14.23;;;;;;;;;;5021220;28;20188;-66
2022/03/16 00:52:46;;;;;;;31.50;14.40;;;;;;;;;;5022511;28;20209;-67
2022/03/16 00:55:12;;;;;;;38.90;15.97;;;;;;;;;;5024553;28;20609;-67
2022/03/16 00:57:37;;;;;;;36.97;14.73;;;;;;;;;;5029830;28;20580;-67
2022/03/16 01:00:04;;;;;;;28.90;14.10;;;;;;;;;;5027074;28;20197;-67
2022/03/16 01:02:30;;;;;;;29.93;13.07;;;;;;;;;;5041836;28;20185;-67
2022/03/16 01:04:55;;;;;;;28.07;13.67;;;;;;;;;;5021796;28;20193;-67
2022/03/16 01:07:21;;;;;;;26.07;12.83;;;;;;;;;;5025478;28;20274;-67
2022/03/16 01:09:46;;;;;;;21.93;11.70;;;;;;;;;;5025864;28;20230;-67
2022/03/16 01:12:11;;;;;;;25.60;12.13;;;;;;;;;;5027854;28;20224;-67
2022/03/16 01:14:37;;;;;;;20.37;10.77;;;;;;;;;;5020747;28;20202;-67
2022/03/16 01:17:02;;;;;;;19.07;10.13;;;;;;;;;;5025719;28;20182;-67
2022/03/16 01:19:29;;;;;;;18.63;11.00;;;;;;;;;;5032575;28;20314;-67
2022/03/16 01:21:55;;;;;;;20.17;9.87;;;;;;;;;;5024247;28;20649;-67
2022/03/16 01:24:20;;;;;;;19.97;10.40;;;;;;;;;;5032099;28;20216;-67
2022/03/16 01:26:45;;;;;;;20.53;10.57;;;;;;;;;;5013859;28;20206;-67
2022/03/16 01:29:11;;;;;;;25.70;11.37;;;;;;;;;;5021647;28;20186;-67
2022/03/16 01:31:36;;;;;;;25.47;12.40;;;;;;;;;;5021479;28;20227;-68
2022/03/16 01:34:02;;;;;;;17.67;10.03;;;;;;;;;;5021750;28;20193;-67
2022/03/16 01:36:27;;;;;;;22.17;11.10;;;;;;;;;;5024066;28;20178;-67
2022/03/16 01:38:53;;;;;;;20.57;11.07;;;;;;;;;;5026235;28;20630;-66
2022/03/16 01:41:18;;;;;;;17.97;10.50;;;;;;;;;;5021122;28;20193;-67
2022/03/16 01:43:43;;;;;;;20.17;11.23;;;;;;;;;;5028118;28;20186;-67
2022/03/16 01:46:09;;;;;;;20.13;11.17;;;;;;;;;;5020777;28;20575;-67
2022/03/16 01:48:34;;;;;;;21.20;10.70;;;;;;;;;;5022458;28;20186;-67
2022/03/16 01:51:00;;;;;;;17.83;9.63;;;;;;;;;;5022881;28;20256;-67
2022/03/16 01:53:26;;;;;;;26.00;10.77;;;;;;;;;;5019204;28;20759;-67
2022/03/16 01:55:52;;;;;;;25.13;10.83;;;;;;;;;;5014046;28;20183;-66
2022/03/16 01:58:18;;;;;;;23.67;12.00;;;;;;;;;;5032896;28;20239;-66
2022/03/16 02:00:43;;;;;;;19.90;11.27;;;;;;;;;;5019292;28;20187;-67
2022/03/16 02:03:09;;;;;;;20.93;11.73;;;;;;;;;;5019705;28;20531;-67
2022/03/16 02:05:38;;;;;;;21.13;10.50;;;;;;;;;;5022977;28;20277;-66
2022/03/16 02:08:08;;;;;;;25.27;11.13;;;;;;;;;;5029313;28;20296;-66
2022/03/16 02:10:34;;;;;;;19.80;10.77;;;;;;;;;;5018560;28;20315;-66
2022/03/16 02:12:59;;;;;;;25.17;11.23;;;;;;;;;;5027964;28;20186;-67
2022/03/16 02:15:25;;;;;;;22.50;11.23;;;;;;;;;;5027457;28;20186;-67
2022/03/16 02:17:53;;;;;;;21.73;11.40;;;;;;;;;;5028240;28;20193;-66
2022/03/16 02:20:18;;;;;;;20.37;11.27;;;;;;;;;;5036548;28;20548;-67
2022/03/16 02:23:06;;;;;;;20.53;11.40;;;;;;;;;;5030504;28;20178;-67
2022/03/16 02:25:32;;;;;;;21.13;11.23;;;;;;;;;;5023614;28;20182;-67
2022/03/16 02:27:58;;;;;;;25.43;12.93;;;;;;;;;;5024435;28;20202;-67
2022/03/16 02:30:26;;;;;;;33.83;13.60;;;;;;;;;;5027659;28;20252;-67
2022/03/16 02:32:52;;;;;;;21.23;11.93;;;;;;;;;;5024600;28;20177;-67
2022/03/16 02:35:17;;;;;;;25.20;11.77;;;;;;;;;;5030072;28;20548;-67
2022/03/16 02:37:43;;;;;;;22.93;12.13;;;;;;;;;;5038588;28;20289;-67
2022/03/16 02:40:17;;;;;;;21.83;11.33;;;;;;;;;;5022055;28;20193;-67
2022/03/16 02:42:42;;;;;;;20.70;11.60;;;;;;;;;;5013694;28;20186;-67
2022/03/16 02:45:08;;;;;;;21.67;9.73;;;;;;;;;;5028643;28;20178;-66
2022/03/16 02:47:34;;;;;;;19.70;11.20;;;;;;;;;;5025941;28;20240;-67
2022/03/16 02:50:03;;;;;;;19.47;11.17;;;;;;;;;;5035303;28;20550;-67
2022/03/16 02:52:28;;;;;;;28.30;12.83;;;;;;;;;;5017300;28;20324;-67
2022/03/16 02:54:54;;;;;;;21.00;10.70;;;;;;;;;;5023830;28;20193;-67
2022/03/16 02:57:19;;;;;;;28.60;12.57;;;;;;;;;;5020339;28;20258;-67
2022/03/16 02:59:45;;;;;;;20.70;12.13;;;;;;;;;;5027818;28;20174;-67
2022/03/16 03:02:11;;;;;;;24.17;11.97;;;;;;;;;;5022800;28;20182;-67
2022/03/16 03:04:37;;;;;;;21.47;10.90;;;;;;;;;;5027813;28;20240;-67
2022/03/16 03:07:02;;;;;;;21.60;10.87;;;;;;;;;;5026628;28;20205;-67
2022/03/16 03:09:28;;;;;;;21.13;10.73;;;;;;;;;;5036724;28;20585;-67
2022/03/16 03:11:53;;;;;;;18.33;10.83;;;;;;;;;;5026925;28;20537;-67
2022/03/16 03:14:19;;;;;;;24.27;11.50;;;;;;;;;;5031154;28;20182;-66
2022/03/16 03:16:46;;;;;;;21.53;11.77;;;;;;;;;;5037110;28;20177;-67
2022/03/16 03:19:12;;;;;;;20.97;10.50;;;;;;;;;;5025225;28;20183;-66
2022/03/16 03:21:37;;;;;;;19.60;11.17;;;;;;;;;;5027045;28;20672;-66
2022/03/16 03:24:03;;;;;;;18.20;11.20;;;;;;;;;;5023878;28;20179;-66
2022/03/16 03:26:28;;;;;;;17.93;10.37;;;;;;;;;;5023242;28;20195;-67
2022/03/16 03:28:54;;;;;;;16.80;10.17;;;;;;;;;;5025074;28;20237;-68
2022/03/16 03:31:20;;;;;;;18.33;10.73;;;;;;;;;;5024123;28;20207;-67
2022/03/16 03:33:45;;;;;;;22.00;11.27;;;;;;;;;;5025347;28;20190;-67
2022/03/16 03:36:10;;;;;;;16.00;9.87;;;;;;;;;;5033714;28;20177;-67
2022/03/16 03:38:36;;;;;;;21.70;10.43;;;;;;;;;;5042447;28;20174;-68
2022/03/16 03:41:03;;;;;;;17.80;9.73;;;;;;;;;;5021743;28;20317;-67
2022/03/16 03:43:28;;;;;;;15.70;9.73;;;;;;;;;;5025120;28;20308;-67
2022/03/16 03:45:54;;;;;;;17.57;9.57;;;;;;;;;;5024782;28;20537;-68
2022/03/16 03:48:19;;;;;;;16.67;10.23;;;;;;;;;;5038291;28;20185;-67
2022/03/16 03:50:44;;;;;;;16.37;9.93;;;;;;;;;;5021320;28;20202;-67
2022/03/16 03:53:10;;;;;;;17.60;10.67;;;;;;;;;;5026573;28;20281;-67
2022/03/16 03:55:35;;;;;;;18.67;11.33;;;;;;;;;;5034637;28;20525;-66
2022/03/16 03:58:00;;;;;;;22.27;10.50;;;;;;;;;;5024867;28;20261;-66
2022/03/16 04:00:25;;;;;;;18.63;11.50;;;;;;;;;;5026230;28;20517;-66
2022/03/16 04:02:51;;;;;;;22.07;11.20;;;;;;;;;;5023406;28;20190;-67
2022/03/16 04:05:18;;;;;;;21.17;12.30;;;;;;;;;;5020005;28;20911;-67
2022/03/16 04:07:43;;;;;;;22.37;11.77;;;;;;;;;;5036575;28;20217;-67
2022/03/16 04:10:10;;;;;;;18.63;10.63;;;;;;;;;;5027442;28;21684;-67
2022/03/16 04:12:36;;;;;;;21.97;12.47;;;;;;;;;;5015836;28;20313;-67
2022/03/16 04:15:01;;;;;;;24.50;12.97;;;;;;;;;;5023130;28;20612;-67
2022/03/16 04:17:26;;;;;;;23.23;12.73;;;;;;;;;;5029110;28;20182;-67
2022/03/16 04:19:52;;;;;;;23.43;13.53;;;;;;;;;;5033957;28;20653;-67
2022/03/16 04:22:17;;;;;;;22.33;12.27;;;;;;;;;;5034523;28;20194;-67
2022/03/16 04:24:42;;;;;;;25.37;13.13;;;;;;;;;;5044932;28;20219;-67
2022/03/16 04:27:08;;;;;;;25.33;12.00;;;;;;;;;;5023018;28;20313;-67
2022/03/16 04:29:33;;;;;;;21.33;12.07;;;;;;;;;;5029075;28;20276;-67
2022/03/16 04:31:58;;;;;;;24.37;13.00;;;;;;;;;;5021914;28;20216;-66
2022/03/16 04:34:24;;;;;;;26.93;14.17;;;;;;;;;;5033621;28;20196;-67
2022/03/16 04:36:49;;;;;;;30.50;15.17;;;;;;;;;;5032774;28;20180;-67
2022/03/16 04:39:14;;;;;;;27.37;14.00;;;;;;;;;;5035567;28;20185;-67
2022/03/16 04:41:40;;;;;;;22.73;12.40;;;;;;;;;;5027308;28;20189;-67
2022/03/16 04:44:05;;;;;;;33.80;12.47;;;;;;;;;;5027655;28;20221;-67
2022/03/16 04:46:30;;;;;;;54.57;15.43;;;;;;;;;;5020469;28;20649;-67
2022/03/16 04:48:56;;;;;;;40.30;15.33;;;;;;;;;;5035603;28;20199;-66
2022/03/16 04:51:21;;;;;;;46.47;15.17;;;;;;;;;;5021074;28;20654;-68
2022/03/16 04:53:46;;;;;;;40.20;14.73;;;;;;;;;;5036678;28;20363;-66
2022/03/16 04:56:12;;;;;;;41.47;15.27;;;;;;;;;;5034862;28;20249;-66
2022/03/16 04:58:38;;;;;;;39.83;14.30;;;;;;;;;;5035757;28;20622;-66
2022/03/16 05:01:03;;;;;;;40.30;15.37;;;;;;;;;;5030785;28;20724;-67
2022/03/16 05:03:29;;;;;;;29.47;13.83;;;;;;;;;;5031305;28;20234;-67
2022/03/16 05:05:54;;;;;;;37.30;14.77;;;;;;;;;;5038085;28;20185;-67
2022/03/16 05:08:19;;;;;;;29.27;15.07;;;;;;;;;;5040029;28;20632;-68
2022/03/16 05:10:45;;;;;;;30.13;14.37;;;;;;;;;;5035599;28;20303;-67
2022/03/16 05:13:10;;;;;;;28.87;13.93;;;;;;;;;;5028987;28;20186;-67
2022/03/16 05:15:35;;;;;;;34.80;14.27;;;;;;;;;;5027484;28;20201;-67
2022/03/16 05:18:01;;;;;;;31.07;14.30;;;;;;;;;;5031347;28;20185;-67
2022/03/16 05:20:26;;;;;;;26.60;13.87;;;;;;;;;;5032341;28;20189;-68
2022/03/16 05:22:53;;;;;;;28.80;13.73;;;;;;;;;;5035388;28;20208;-67
2022/03/16 05:25:24;;;;;;;23.83;13.50;;;;;;;;;;5020387;28;20193;-67
2022/03/16 05:27:50;;;;;;;24.37;13.77;;;;;;;;;;5024072;28;20533;-67
2022/03/16 05:30:15;;;;;;;27.90;14.93;;;;;;;;;;5021146;28;20201;-66
2022/03/16 05:32:42;;;;;;;28.13;13.87;;;;;;;;;;5018179;28;20530;-67
2022/03/16 05:35:13;;;;;;;30.97;15.83;;;;;;;;;;5021780;28;20197;-66
2022/03/16 05:37:39;;;;;;;28.97;14.97;;;;;;;;;;5025166;28;20194;-67
2022/03/16 05:40:06;;;;;;;29.43;14.67;;;;;;;;;;5024276;28;20248;-67
2022/03/16 05:42:32;;;;;;;28.20;14.53;;;;;;;;;;5026207;28;20190;-67
2022/03/16 05:44:57;;;;;;;29.43;15.83;;;;;;;;;;5032454;28;20607;-67
2022/03/16 05:47:24;;;;;;;28.40;15.00;;;;;;;;;;5027076;28;20208;-67
2022/03/16 05:49:55;;;;;;;30.17;14.67;;;;;;;;;;5024834;28;20641;-66
2022/03/16 05:52:22;;;;;;;29.40;14.10;;;;;;;;;;5022890;28;20191;-66
2022/03/16 05:54:49;;;;;;;32.27;15.37;;;;;;;;;;5027195;28;20213;-67
2022/03/16 05:57:15;;;;;;;28.20;14.60;;;;;;;;;;5027668;28;20269;-66
2022/03/16 05:59:41;;;;;;;30.37;14.83;;;;;;;;;;5027897;28;20175;-67
2022/03/16 06:02:06;;;;;;;31.53;16.13;;;;;;;;;;5025184;28;20178;-67
2022/03/16 06:04:31;;;;;;;33.30;16.47;;;;;;;;;;5022014;28;20182;-66
2022/03/16 06:06:57;;;;;;;36.07;16.50;;;;;;;;;;5040660;28;20248;-68
2022/03/16 06:09:22;;;;;;;32.17;16.03;;;;;;;;;;5032042;28;20705;-67
2022/03/16 06:11:47;;;;;;;27.23;14.87;;;;;;;;;;5041470;28;20175;-68
2022/03/16 06:14:13;;;;;;;32.30;16.40;;;;;;;;;;5029382;28;20190;-67
2022/03/16 06:16:39;;;;;;;35.37;17.70;;;;;;;;;;5020179;28;20645;-67
2022/03/16 06:19:04;;;;;;;30.43;16.33;;;;;;;;;;5036553;28;20203;-67
2022/03/16 06:21:30;;;;;;;36.63;17.50;;;;;;;;;;5036197;28;20189;-67
2022/03/16 06:23:55;;;;;;;35.10;18.90;;;;;;;;;;5036200;28;20190;-67
2022/03/16 06:26:20;;;;;;;35.80;19.17;;;;;;;;;;5028164;28;20618;-67
2022/03/16 06:28:46;;;;;;;33.77;18.87;;;;;;;;;;5036096;28;20186;-67
2022/03/16 06:31:11;;;;;;;37.90;17.60;;;;;;;;;;5029875;28;20217;-67
2022/03/16 06:33:37;;;;;;;37.87;18.73;;;;;;;;;;5040482;28;20181;-66
2022/03/16 06:36:02;;;;;;;38.53;19.87;;;;;;;;;;5045375;28;20197;-66
2022/03/16 06:38:27;;;;;;;36.43;18.40;;;;;;;;;;5042927;28;20189;-67
2022/03/16 06:40:53;;;;;;;37.30;19.67;;;;;;;;;;5044221;28;20194;-67
2022/03/16 06:43:18;;;;;;;38.07;19.97;;;;;;;;;;5035631;28;20299;-67
2022/03/16 06:45:43;;;;;;;41.33;21.17;;;;;;;;;;5031220;28;20630;-67
2022/03/16 06:48:09;;;;;;;41.20;21.83;;;;;;;;;;5028534;28;20256;-67
2022/03/16 06:50:34;;;;;;;39.17;22.63;;;;;;;;;;5026346;28;20217;-67
2022/03/16 06:52:59;;;;;;;37.97;21.90;;;;;;;;;;5024770;28;20182;-67
2022/03/16 06:55:26;;;;;;;39.27;21.43;;;;;;;;;;5038529;28;20410;-67
2022/03/16 06:57:52;;;;;;;41.53;21.43;;;;;;;;;;5031286;28;20807;-67
2022/03/16 07:00:17;;;;;;;44.23;24.20;;;;;;;;;;5040256;28;20194;-67
2022/03/16 07:03:00;;;;;;;46.57;24.80;;;;;;;;;;5029655;28;20685;-67
2022/03/16 07:05:31;;;;;;;45.83;24.97;;;;;;;;;;5024416;28;20186;-67
2022/03/16 07:07:58;;;;;;;52.63;27.17;;;;;;;;;;5026370;28;20212;-67
2022/03/16 07:10:23;;;;;;;56.23;28.30;;;;;;;;;;5034840;28;20862;-68
2022/03/16 07:12:49;;;;;;;51.17;27.40;;;;;;;;;;5024263;28;20199;-68
2022/03/16 07:15:14;;;;;;;62.87;29.50;;;;;;;;;;5027758;28;20204;-67
2022/03/16 07:17:39;;;;;;;56.53;30.57;;;;;;;;;;5031329;28;20220;-67
2022/03/16 07:20:06;;;;;;;60.43;31.07;;;;;;;;;;5033934;28;20341;-67
2022/03/16 07:22:32;;;;;;;63.33;33.93;;;;;;;;;;5032533;28;20267;-67
2022/03/16 07:24:58;;;;;;;61.97;31.67;;;;;;;;;;5024840;28;20185;-68
2022/03/16 07:27:23;;;;;;;66.47;34.10;;;;;;;;;;5024387;28;20682;-68
2022/03/16 07:29:49;;;;;;;69.50;33.43;;;;;;;;;;5029520;28;20189;-68
2022/03/16 07:32:14;;;;;;;70.77;36.07;;;;;;;;;;5026120;28;20207;-67
2022/03/16 07:34:39;;;;;;;67.87;35.93;;;;;;;;;;5029219;28;20738;-68
2022/03/16 07:37:05;;;;;;;70.60;36.53;;;;;;;;;;5032884;28;20256;-67
2022/03/16 07:39:30;;;;;;;72.00;37.23;;;;;;;;;;5022825;28;20186;-68
2022/03/16 07:41:55;;;;;;;71.23;38.33;;;;;;;;;;5028031;28;20190;-66
2022/03/16 07:44:21;;;;;;;72.43;37.13;;;;;;;;;;5023461;28;20228;-67
2022/03/16 07:46:46;;;;;;;68.93;36.40;;;;;;;;;;5031211;28;20210;-66
2022/03/16 07:49:11;;;;;;;73.43;37.43;;;;;;;;;;5025068;28;20226;-67
2022/03/16 07:51:37;;;;;;;72.03;37.70;;;;;;;;;;5027782;28;20231;-67
2022/03/16 07:54:02;;;;;;;69.53;39.07;;;;;;;;;;5027513;28;20174;-68
2022/03/16 07:56:28;;;;;;;78.03;39.77;;;;;;;;;;5028060;28;20170;-68
2022/03/16 07:58:54;;;;;;;80.27;40.90;;;;;;;;;;5029861;28;20184;-66
2022/03/16 08:01:20;;;;;;;84.30;42.67;;;;;;;;;;5038366;28;20202;-68
2022/03/16 08:03:46;;;;;;;86.53;43.03;;;;;;;;;;5032569;28;20188;-66
2022/03/16 08:06:11;;;;;;;85.47;42.63;;;;;;;;;;5038684;28;20221;-67
2022/03/16 08:08:39;;;;;;;84.50;42.57;;;;;;;;;;5032564;28;20597;-66
2022/03/16 08:11:08;;;;;;;90.10;44.40;;;;;;;;;;5044286;28;20185;-67
2022/03/16 08:13:35;;;;;;;86.53;44.83;;;;;;;;;;5022076;28;20240;-67
2022/03/16 08:16:00;;;;;;;88.63;45.13;;;;;;;;;;5026132;28;20593;-66
2022/03/16 08:18:25;;;;;;;83.70;44.27;;;;;;;;;;5027956;28;20214;-67
2022/03/16 08:20:51;;;;;;;94.53;47.20;;;;;;;;;;5027001;28;20209;-66
2022/03/16 08:23:16;;;;;;;85.23;45.63;;;;;;;;;;5018295;28;20706;-67
2022/03/16 08:25:41;;;;;;;83.73;45.07;;;;;;;;;;5026418;28;20215;-67
2022/03/16 08:28:07;;;;;;;84.23;46.10;;;;;;;;;;5023148;28;20214;-67
2022/03/16 08:30:34;;;;;;;89.40;44.57;;;;;;;;;;5024459;28;20204;-68
2022/03/16 08:33:00;;;;;;;77.70;43.73;;;;;;;;;;5027070;28;20186;-67
2022/03/16 08:35:26;;;;;;;75.07;41.20;;;;;;;;;;5027078;28;20186;-68
2022/03/16 08:37:51;;;;;;;70.37;39.57;;;;;;;;;;5023077;28;20178;-68
2022/03/16 08:40:16;;;;;;;102.43;50.20;;;;;;;;;;5028886;28;20198;-67
2022/03/16 08:42:43;;;;;;;139.40;64.90;;;;;;;;;;5027907;28;20541;-67
2022/03/16 08:45:08;;;;;;;109.93;53.10;;;;;;;;;;5030631;28;20312;-66
2022/03/16 08:47:33;;;;;;;67.27;35.63;;;;;;;;;;5031620;28;20285;-66
2022/03/16 08:49:59;;;;;;;54.27;29.83;;;;;;;;;;5027231;28;20182;-67
2022/03/16 08:52:24;;;;;;;41.37;24.00;;;;;;;;;;5027304;28;20267;-67
2022/03/16 08:54:50;;;;;;;35.47;21.73;;;;;;;;;;5031015;28;20189;-67
2022/03/16 08:57:16;;;;;;;37.00;21.85;;;;;;;;;;5031871;28;20170;-67
2022/03/16 08:59:41;;;;;;;30.38;19.50;;;;;;;;;;5029874;28;20189;-67
2022/03/16 09:02:07;;;;;;;35.45;19.13;;;;;;;;;;5034856;28;20215;-66
2022/03/16 09:04:34;;;;;;;31.15;18.13;;;;;;;;;;5038018;28;20173;-66
2022/03/16 09:07:00;;;;;;;27.90;16.20;;;;;;;;;;5039831;28;21573;-67
2022/03/16 09:09:25;;;;;;;26.48;15.68;;;;;;;;;;5039226;28;20702;-67
2022/03/16 09:11:51;;;;;;;25.20;15.57;;;;;;;;;;5033948;28;20204;-67
2022/03/16 09:14:16;;;;;;;25.92;15.68;;;;;;;;;;5040175;28;20874;-67
2022/03/16 09:16:44;;;;;;;26.85;15.05;;;;;;;;;;5045551;28;20177;-67
2022/03/16 09:19:10;;;;;;;23.17;14.73;;;;;;;;;;5045667;28;20185;-67
2022/03/16 09:21:35;;;;;;;22.95;14.27;;;;;;;;;;5046741;28;20319;-67
2022/03/16 09:24:01;;;;;;;24.67;13.80;;;;;;;;;;5045166;28;20216;-67
2022/03/16 09:26:27;;;;;;;20.42;12.88;;;;;;;;;;5047953;28;20236;-68
2022/03/16 09:28:52;;;;;;;20.33;12.82;;;;;;;;;;5036841;28;20190;-67
2022/03/16 09:31:20;;;;;;;20.77;12.73;;;;;;;;;;5042556;28;20201;-67
2022/03/16 09:33:48;;;;;;;19.67;11.75;;;;;;;;;;5043085;28;20185;-67
2022/03/16 09:36:13;;;;;;;18.73;11.10;;;;;;;;;;5048681;28;20201;-67
2022/03/16 09:38:39;;;;;;;20.17;11.70;;;;;;;;;;5043325;28;20218;-68
2022/03/16 09:41:04;;;;;;;19.20;10.98;;;;;;;;;;5044168;28;20173;-69
2022/03/16 09:43:33;;;;;;;18.95;10.68;;;;;;;;;;5041834;28;20178;-67
2022/03/16 09:46:16;;;;;;;16.70;10.70;;;;;;;;;;5041703;28;20189;-68
2022/03/16 09:48:41;;;;;;;21.50;10.73;;;;;;;;;;5016271;28;20537;-67
2022/03/16 09:51:09;;;;;;;15.65;9.75;;;;;;;;;;5046646;28;20182;-68
2022/03/16 09:53:35;;;;;;;20.08;10.77;;;;;;;;;;5040996;28;20550;-68
2022/03/16 09:56:03;;;;;;;15.85;9.90;;;;;;;;;;5045724;28;20177;-68
2022/03/16 09:58:28;;;;;;;18.13;10.48;;;;;;;;;;5045941;28;20185;-68
2022/03/16 10:00:55;;;;;;;16.42;9.70;;;;;;;;;;5042555;28;20174;-68
2022/03/16 10:03:22;;;;;;;15.15;9.45;;;;;;;;;;5041969;28;20174;-67
2022/03/16 10:05:50;;;;;;;16.65;9.65;;;;;;;;;;5047381;28;20194;-68
2022/03/16 10:08:36;;;;;;;15.07;8.88;;;;;;;;;;5040931;28;20205;-68
2022/03/16 10:13:59;;;;;;;15.35;9.48;;;;;;;;;;5040537;28;20185;-68
2022/03/16 10:16:25;;;;;;;15.60;9.05;;;;;;;;;;5044806;28;20185;-69
2022/03/16 10:18:55;;;;;;;17.48;9.25;;;;;;;;;;5042506;28;20186;-67
2022/03/16 10:21:22;;;;;;;15.48;9.27;;;;;;;;;;5043954;28;20315;-67
2022/03/16 10:23:47;;;;;;;16.02;9.77;;;;;;;;;;5045593;28;20170;-67
2022/03/16 10:26:18;;;;;;;17.08;9.27;;;;;;;;;;5044313;28;20559;-67
2022/03/16 10:28:46;;;;;;;14.45;8.88;;;;;;;;;;5041253;28;20574;-68
2022/03/16 10:31:12;;;;;;;13.30;8.70;;;;;;;;;;5041562;28;20193;-68
2022/03/16 10:33:47;;;;;;;12.27;8.35;;;;;;;;;;5038810;28;20190;-68
2022/03/16 10:36:15;;;;;;;14.45;8.80;;;;;;;;;;5033351;28;20674;-67
2022/03/16 10:38:50;;;;;;;15.00;9.13;;;;;;;;;;5038913;28;20673;-68
2022/03/16 10:47:01;;;;;;;13.25;8.02;;;;;;;;;;5040349;28;20224;-67
2022/03/16 10:49:32;;;;;;;13.70;7.78;;;;;;;;;;5038305;28;20229;-67
2022/03/16 10:52:13;;;;;;;15.70;8.85;;;;;;;;;;5039668;28;20296;-67
2022/03/16 10:54:38;;;;;;;16.60;8.45;;;;;;;;;;5036885;28;20189;-67
2022/03/16 10:57:08;;;;;;;12.10;8.32;;;;;;;;;;5040463;28;20593;-67
2022/03/16 10:59:34;;;;;;;13.88;8.57;;;;;;;;;;5032700;28;20704;-67
2022/03/16 11:02:03;;;;;;;16.45;8.88;;;;;;;;;;5035741;28;20322;-68
2022/03/16 11:04:30;;;;;;;13.60;8.25;;;;;;;;;;5022254;28;20190;-68
2022/03/16 11:06:58;;;;;;;13.40;8.45;;;;;;;;;;5040951;28;20198;-67
2022/03/16 11:09:24;;;;;;;14.18;9.15;;;;;;;;;;5039360;28;20221;-67
2022/03/16 11:14:34;;;;;;;13.98;8.65;;;;;;;;;;5018188;28;20201;-67
2022/03/16 11:17:01;;;;;;;13.75;8.13;;;;;;;;;;5035484;28;20826;-68
2022/03/16 11:19:27;;;;;;;14.07;9.05;;;;;;;;;;5041850;28;20186;-68
2022/03/16 11:22:11;;;;;;;12.80;8.43;;;;;;;;;;5032643;28;20324;-68
2022/03/16 11:24:41;;;;;;;14.52;9.02;;;;;;;;;;5033366;28;20204;-67
2022/03/16 11:27:49;;;;;;;16.45;9.57;;;;;;;;;;5039079;28;20678;-67
2022/03/16 11:30:37;;;;;;;17.40;9.13;;;;;;;;;;5032349;28;20188;-67
2022/03/16 11:33:06;;;;;;;14.43;8.95;;;;;;;;;;5028600;28;20176;-67
2022/03/16 11:35:37;;;;;;;16.50;8.43;;;;;;;;;;5021406;28;20189;-67
2022/03/16 11:38:09;;;;;;;14.50;9.05;;;;;;;;;;5044345;28;20181;-68
2022/03/16 11:40:37;;;;;;;16.15;9.30;;;;;;;;;;5038829;28;20227;-68
2022/03/16 11:43:05;;;;;;;12.98;8.63;;;;;;;;;;5046375;28;20186;-67
2022/03/16 11:45:36;;;;;;;16.17;9.30;;;;;;;;;;5037611;28;20189;-67
2022/03/16 11:48:34;;;;;;;13.02;8.73;;;;;;;;;;5038544;28;20213;-67
2022/03/16 11:51:06;;;;;;;14.38;9.27;;;;;;;;;;5036605;28;20202;-67
2022/03/16 11:54:05;;;;;;;12.98;9.68;;;;;;;;;;5038057;28;20190;-67
2022/03/16 11:56:36;;;;;;;14.75;8.75;;;;;;;;;;5017312;28;20186;-67
2022/03/16 11:59:28;;;;;;;13.40;9.00;;;;;;;;;;5027309;28;20185;-67
2022/03/16 12:02:05;;;;;;;13.93;9.02;;;;;;;;;;5030407;28;20270;-67
2022/03/16 12:04:38;;;;;;;15.80;8.75;;;;;;;;;;5040159;28;20599;-67
2022/03/16 12:07:08;;;;;;;14.43;8.40;;;;;;;;;;5041592;28;20201;-67
2022/03/16 12:09:51;;;;;;;13.85;8.73;;;;;;;;;;5043015;28;20593;-67
2022/03/16 12:15:12;;;;;;;13.18;8.18;;;;;;;;;;5038495;28;20258;-68
2022/03/16 12:18:00;;;;;;;13.98;8.80;;;;;;;;;;5042685;28;20181;-67
2022/03/16 12:20:28;;;;;;;14.32;8.90;;;;;;;;;;5036622;28;20193;-67
2022/03/16 12:22:55;;;;;;;13.85;8.90;;;;;;;;;;5029557;28;20522;-67
2022/03/16 12:25:27;;;;;;;13.48;8.93;;;;;;;;;;5025407;28;20177;-67
2022/03/16 12:30:54;;;;;;;12.95;9.27;;;;;;;;;;5021618;28;20217;-67
2022/03/16 12:33:22;;;;;;;20.02;10.27;;;;;;;;;;5027190;28;20186;-67
2022/03/16 12:35:50;;;;;;;14.88;8.95;;;;;;;;;;5020520;28;20216;-67
2022/03/16 12:38:16;;;;;;;15.07;9.25;;;;;;;;;;5032857;28;20588;-68
2022/03/16 12:43:27;;;;;;;15.88;9.07;;;;;;;;;;5027946;28;20216;-67
2022/03/16 12:46:00;;;;;;;13.73;9.30;;;;;;;;;;5025016;28;20621;-65
2022/03/16 12:48:33;;;;;;;15.90;8.85;;;;;;;;;;5038471;28;20197;-67
2022/03/16 12:50:59;;;;;;;15.65;9.48;;;;;;;;;;5018625;28;20177;-67
2022/03/16 12:53:45;;;;;;;12.88;8.52;;;;;;;;;;5032322;28;20239;-67
2022/03/16 12:56:19;;;;;;;15.00;8.88;;;;;;;;;;5009313;28;20593;-67
2022/03/16 12:58:55;;;;;;;11.80;7.95;;;;;;;;;;5024251;28;20207;-67
2022/03/16 13:01:22;;;;;;;16.80;9.50;;;;;;;;;;5018514;28;20248;-67
2022/03/16 13:04:00;;;;;;;17.85;9.95;;;;;;;;;;5022418;28;20364;-67
2022/03/16 13:06:25;;;;;;;15.20;9.75;;;;;;;;;;5025076;28;20525;-67
2022/03/16 13:08:52;;;;;;;14.32;9.25;;;;;;;;;;5028943;28;20229;-67
2022/03/16 13:11:26;;;;;;;18.75;10.35;;;;;;;;;;5024591;28;20317;-67
2022/03/16 13:14:19;;;;;;;15.60;9.38;;;;;;;;;;5025937;28;20196;-67
2022/03/16 13:16:55;;;;;;;14.52;9.63;;;;;;;;;;5025758;28;20193;-67
2022/03/16 13:19:26;;;;;;;17.83;10.05;;;;;;;;;;5034130;28;20590;-67
2022/03/16 13:22:04;;;;;;;13.82;9.13;;;;;;;;;;5029835;28;20534;-67
2022/03/16 13:24:38;;;;;;;15.68;9.57;;;;;;;;;;5032620;28;20181;-68
2022/03/16 13:27:06;;;;;;;15.43;10.00;;;;;;;;;;5028755;28;20636;-67
2022/03/16 13:29:33;;;;;;;16.25;9.52;;;;;;;;;;5033127;28;20232;-68
2022/03/16 13:32:01;;;;;;;15.93;10.00;;;;;;;;;;5033503;28;20232;-67
2022/03/16 13:34:27;;;;;;;14.10;9.93;;;;;;;;;;5032347;28;20216;-67
2022/03/16 13:36:53;;;;;;;16.83;10.70;;;;;;;;;;5033959;28;20239;-67
2022/03/16 13:39:30;;;;;;;13.52;9.73;;;;;;;;;;5034235;28;20213;-67
2022/03/16 13:42:05;;;;;;;15.93;10.35;;;;;;;;;;5032270;28;20185;-67
2022/03/16 13:44:37;;;;;;;16.70;10.30;;;;;;;;;;5041933;28;20185;-67
2022/03/16 13:47:23;;;;;;;14.45;10.48;;;;;;;;;;5024134;28;20212;-67
2022/03/16 13:49:51;;;;;;;16.40;10.30;;;;;;;;;;5018041;28;20228;-67
2022/03/16 13:52:28;;;;;;;17.05;10.85;;;;;;;;;;5024760;28;20189;-67
2022/03/16 13:55:07;;;;;;;17.63;10.80;;;;;;;;;;5031616;28;20209;-67
2022/03/16 13:57:36;;;;;;;15.48;10.20;;;;;;;;;;5026123;28;20209;-67
2022/03/16 14:00:07;;;;;;;15.60;10.95;;;;;;;;;;5023960;28;20286;-67
2022/03/16 14:02:32;;;;;;;16.52;10.18;;;;;;;;;;5025660;28;20209;-67
2022/03/16 14:05:06;;;;;;;17.88;11.98;;;;;;;;;;5020690;28;20625;-67
2022/03/16 14:07:39;;;;;;;19.27;11.60;;;;;;;;;;5028773;28;20268;-66
2022/03/16 14:10:06;;;;;;;17.45;10.32;;;;;;;;;;5034690;28;20222;-67
2022/03/16 14:12:34;;;;;;;17.83;11.70;;;;;;;;;;5043810;28;20235;-67
2022/03/16 14:15:06;;;;;;;16.45;11.10;;;;;;;;;;5036122;28;20198;-67
2022/03/16 14:17:41;;;;;;;16.95;10.55;;;;;;;;;;5047734;28;20186;-66
2022/03/16 14:20:14;;;;;;;16.13;10.52;;;;;;;;;;5038433;28;20178;-67
2022/03/16 14:22:45;;;;;;;17.65;10.73;;;;;;;;;;5041610;28;20188;-67
2022/03/16 14:25:19;;;;;;;18.08;11.32;;;;;;;;;;5038694;28;20210;-67
2022/03/16 14:27:49;;;;;;;17.23;10.77;;;;;;;;;;5044297;28;20181;-67
2022/03/16 14:30:17;;;;;;;16.00;11.30;;;;;;;;;;5041544;28;20537;-67
2022/03/16 14:32:47;;;;;;;15.93;10.82;;;;;;;;;;5024168;28;20221;-66
2022/03/16 14:35:13;;;;;;;17.85;10.60;;;;;;;;;;5029314;28;20234;-66
2022/03/16 14:37:39;;;;;;;17.42;11.15;;;;;;;;;;5021569;28;20193;-67
2022/03/16 14:40:05;;;;;;;18.55;11.77;;;;;;;;;;5028405;28;20178;-66
2022/03/16 14:42:30;;;;;;;16.98;11.10;;;;;;;;;;5030495;28;20205;-66
2022/03/16 14:44:55;;;;;;;16.63;10.75;;;;;;;;;;5029978;28;20212;-67